Terminal Aerodrome Forecast
Issued by NWS

Current Version | Previous Version | Text Only | Print | Product List | Glossary On
Versions: 1 2 3 4 5 6 7 8 9 10 11 12 13 14 15 16 17
000
FTUS45 KPSR 241700
TAFIWA
TAF
KIWA 241723Z 2418/2518 15006KT P6SM FEW250
     FM241900 26006KT P6SM SCT250
     FM250500 14007KT P6SM SCT250=

USA.gov is the U.S. government's official web portal to all federal, state and local government web resources and services.